sensor_id;sensor_type;location;lat;lon;timestamp;temperature;humidity
20066;DHT22;10193;48.884;9.182;2023-07-13T00:00:47;23.10;48.20
20066;DHT22;10193;48.884;9.182;2023-07-13T00:03:14;23.10;48.20
20066;DHT22;10193;48.884;9.182;2023-07-13T00:05:41;23.10;48.30
20066;DHT22;10193;48.884;9.182;2023-07-13T00:08:08;23.00;48.30
20066;DHT22;10193;48.884;9.182;2023-07-13T00:10:39;23.00;48.30
20066;DHT22;10193;48.884;9.182;2023-07-13T00:13:07;22.90;48.30
20066;DHT22;10193;48.884;9.182;2023-07-13T00:15:35;22.90;48.30
20066;DHT22;10193;48.884;9.182;2023-07-13T00:18:02;22.80;48.30
20066;DHT22;10193;48.884;9.182;2023-07-13T00:20:29;22.80;48.40
20066;DHT22;10193;48.884;9.182;2023-07-13T00:22:56;22.70;48.40
20066;DHT22;10193;48.884;9.182;2023-07-13T00:25:23;22.70;48.50
20066;DHT22;10193;48.884;9.182;2023-07-13T00:27:51;22.60;48.40
20066;DHT22;10193;48.884;9.182;2023-07-13T00:30:18;22.60;48.50
20066;DHT22;10193;48.884;9.182;2023-07-13T00:32:46;22.50;48.50
20066;DHT22;10193;48.884;9.182;2023-07-13T00:35:14;22.50;48.50
20066;DHT22;10193;48.884;9.182;2023-07-13T00:37:41;22.40;48.50
20066;DHT22;10193;48.884;9.182;2023-07-13T00:40:10;22.40;48.60
20066;DHT22;10193;48.884;9.182;2023-07-13T00:42:37;22.40;48.70
20066;DHT22;10193;48.884;9.182;2023-07-13T00:45:06;22.30;48.60
20066;DHT22;10193;48.884;9.182;2023-07-13T00:47:33;22.30;48.70
20066;DHT22;10193;48.884;9.182;2023-07-13T00:50:01;22.20;48.70
20066;DHT22;10193;48.884;9.182;2023-07-13T00:52:29;22.20;48.80
20066;DHT22;10193;48.884;9.182;2023-07-13T00:54:56;22.10;48.70
20066;DHT22;10193;48.884;9.182;2023-07-13T00:57:23;22.10;48.80
20066;DHT22;10193;48.884;9.182;2023-07-13T00:59:54;22.10;48.80
20066;DHT22;10193;48.884;9.182;2023-07-13T01:02:22;22.10;48.90
20066;DHT22;10193;48.884;9.182;2023-07-13T01:04:49;22.00;48.80
20066;DHT22;10193;48.884;9.182;2023-07-13T01:07:18;22.00;48.80
20066;DHT22;10193;48.884;9.182;2023-07-13T01:09:45;22.00;48.90
20066;DHT22;10193;48.884;9.182;2023-07-13T01:12:11;21.90;48.80
20066;DHT22;10193;48.884;9.182;2023-07-13T01:14:39;21.90;48.80
20066;DHT22;10193;48.884;9.182;2023-07-13T01:17:08;21.90;48.80
20066;DHT22;10193;48.884;9.182;2023-07-13T01:19:37;21.80;48.80
20066;DHT22;10193;48.884;9.182;2023-07-13T01:22:07;21.80;48.90
20066;DHT22;10193;48.884;9.182;2023-07-13T01:24:37;21.80;48.90
20066;DHT22;10193;48.884;9.182;2023-07-13T01:27:06;21.70;48.90
20066;DHT22;10193;48.884;9.182;2023-07-13T01:29:34;21.70;48.90
20066;DHT22;10193;48.884;9.182;2023-07-13T01:32:08;21.70;48.90
20066;DHT22;10193;48.884;9.182;2023-07-13T01:34:35;21.60;48.90
20066;DHT22;10193;48.884;9.182;2023-07-13T01:37:02;21.60;48.90
20066;DHT22;10193;48.884;9.182;2023-07-13T01:39:31;21.60;48.90
20066;DHT22;10193;48.884;9.182;2023-07-13T01:41:58;21.50;48.90
20066;DHT22;10193;48.884;9.182;2023-07-13T01:44:25;21.50;48.90
20066;DHT22;10193;48.884;9.182;2023-07-13T01:46:52;21.50;49.00
20066;DHT22;10193;48.884;9.182;2023-07-13T01:49:19;21.50;49.00
20066;DHT22;10193;48.884;9.182;2023-07-13T01:51:46;21.50;49.10
20066;DHT22;10193;48.884;9.182;2023-07-13T01:54:12;21.40;49.10
20066;DHT22;10193;48.884;9.182;2023-07-13T01:56:40;21.40;49.10
20066;DHT22;10193;48.884;9.182;2023-07-13T01:59:08;21.40;49.10
20066;DHT22;10193;48.884;9.182;2023-07-13T02:01:34;21.30;49.10
20066;DHT22;10193;48.884;9.182;2023-07-13T02:04:02;21.30;49.20
20066;DHT22;10193;48.884;9.182;2023-07-13T02:06:29;21.30;49.30
20066;DHT22;10193;48.884;9.182;2023-07-13T02:08:55;21.30;49.50
20066;DHT22;10193;48.884;9.182;2023-07-13T02:11:22;21.20;49.40
20066;DHT22;10193;48.884;9.182;2023-07-13T02:13:51;21.20;49.40
20066;DHT22;10193;48.884;9.182;2023-07-13T02:16:18;21.10;49.30
20066;DHT22;10193;48.884;9.182;2023-07-13T02:18:45;21.10;49.50
20066;DHT22;10193;48.884;9.182;2023-07-13T02:21:11;21.00;49.40
20066;DHT22;10193;48.884;9.182;2023-07-13T02:23:38;21.00;49.60
20066;DHT22;10193;48.884;9.182;2023-07-13T02:26:05;20.90;49.60
20066;DHT22;10193;48.884;9.182;2023-07-13T02:28:32;20.90;49.70
20066;DHT22;10193;48.884;9.182;2023-07-13T02:31:06;20.80;49.70
20066;DHT22;10193;48.884;9.182;2023-07-13T02:33:33;20.80;50.00
20066;DHT22;10193;48.884;9.182;2023-07-13T02:35:59;20.80;49.90
20066;DHT22;10193;48.884;9.182;2023-07-13T02:38:26;20.80;50.00
20066;DHT22;10193;48.884;9.182;2023-07-13T02:40:53;20.70;50.00
20066;DHT22;10193;48.884;9.182;2023-07-13T02:43:20;20.70;50.10
20066;DHT22;10193;48.884;9.182;2023-07-13T02:45:47;20.70;50.10
20066;DHT22;10193;48.884;9.182;2023-07-13T02:48:15;20.60;50.20
20066;DHT22;10193;48.884;9.182;2023-07-13T02:50:41;20.60;50.20
20066;DHT22;10193;48.884;9.182;2023-07-13T02:53:08;20.60;50.30
20066;DHT22;10193;48.884;9.182;2023-07-13T02:55:35;20.60;50.30
20066;DHT22;10193;48.884;9.182;2023-07-13T02:58:01;20.60;50.40
20066;DHT22;10193;48.884;9.182;2023-07-13T03:00:28;20.50;50.40
20066;DHT22;10193;48.884;9.182;2023-07-13T03:02:56;20.50;50.50
20066;DHT22;10193;48.884;9.182;2023-07-13T03:05:25;20.50;50.60
20066;DHT22;10193;48.884;9.182;2023-07-13T03:07:51;20.50;50.60
20066;DHT22;10193;48.884;9.182;2023-07-13T03:10:18;20.40;50.50
20066;DHT22;10193;48.884;9.182;2023-07-13T03:12:45;20.40;50.60
20066;DHT22;10193;48.884;9.182;2023-07-13T03:15:12;20.40;50.80
20066;DHT22;10193;48.884;9.182;2023-07-13T03:17:38;20.30;50.80
20066;DHT22;10193;48.884;9.182;2023-07-13T03:20:06;20.30;51.00
20066;DHT22;10193;48.884;9.182;2023-07-13T03:22:35;20.20;51.00
20066;DHT22;10193;48.884;9.182;2023-07-13T03:25:02;20.20;51.00
20066;DHT22;10193;48.884;9.182;2023-07-13T03:27:29;20.20;51.20
20066;DHT22;10193;48.884;9.182;2023-07-13T03:29:56;20.10;51.10
20066;DHT22;10193;48.884;9.182;2023-07-13T03:32:22;20.10;51.30
20066;DHT22;10193;48.884;9.182;2023-07-13T03:34:49;20.10;51.50
20066;DHT22;10193;48.884;9.182;2023-07-13T03:37:16;20.10;51.60
20066;DHT22;10193;48.884;9.182;2023-07-13T03:39:44;20.00;51.60
20066;DHT22;10193;48.884;9.182;2023-07-13T03:42:10;20.00;51.80
20066;DHT22;10193;48.884;9.182;2023-07-13T03:44:38;20.00;51.90
20066;DHT22;10193;48.884;9.182;2023-07-13T03:47:05;20.00;52.10
20066;DHT22;10193;48.884;9.182;2023-07-13T03:49:34;20.00;52.20
20066;DHT22;10193;48.884;9.182;2023-07-13T03:52:01;20.00;52.30
20066;DHT22;10193;48.884;9.182;2023-07-13T03:54:27;20.00;52.40
20066;DHT22;10193;48.884;9.182;2023-07-13T03:56:56;20.10;52.50
20066;DHT22;10193;48.884;9.182;2023-07-13T03:59:22;20.10;52.60
20066;DHT22;10193;48.884;9.182;2023-07-13T04:01:49;20.10;52.60
20066;DHT22;10193;48.884;9.182;2023-07-13T04:04:16;20.10;52.60
20066;DHT22;10193;48.884;9.182;2023-07-13T04:06:42;20.10;52.60
20066;DHT22;10193;48.884;9.182;2023-07-13T04:09:09;20.20;52.60
20066;DHT22;10193;48.884;9.182;2023-07-13T04:11:36;20.10;52.50
20066;DHT22;10193;48.884;9.182;2023-07-13T04:14:04;20.20;52.50
20066;DHT22;10193;48.884;9.182;2023-07-13T04:16:31;20.20;52.40
20066;DHT22;10193;48.884;9.182;2023-07-13T04:18:58;20.20;52.30
20066;DHT22;10193;48.884;9.182;2023-07-13T04:21:26;20.30;52.30
20066;DHT22;10193;48.884;9.182;2023-07-13T04:23:53;20.30;52.20
20066;DHT22;10193;48.884;9.182;2023-07-13T04:26:20;20.20;52.00
20066;DHT22;10193;48.884;9.182;2023-07-13T04:28:48;20.30;52.10
20066;DHT22;10193;48.884;9.182;2023-07-13T04:31:16;20.30;52.10
20066;DHT22;10193;48.884;9.182;2023-07-13T04:33:43;20.30;52.10
20066;DHT22;10193;48.884;9.182;2023-07-13T04:36:10;20.30;52.00
20066;DHT22;10193;48.884;9.182;2023-07-13T04:38:37;20.30;51.90
20066;DHT22;10193;48.884;9.182;2023-07-13T04:41:06;20.30;51.90
20066;DHT22;10193;48.884;9.182;2023-07-13T04:43:33;20.30;51.90
20066;DHT22;10193;48.884;9.182;2023-07-13T04:46:04;20.30;51.80
20066;DHT22;10193;48.884;9.182;2023-07-13T04:48:32;20.30;51.80
20066;DHT22;10193;48.884;9.182;2023-07-13T04:50:59;20.30;51.70
20066;DHT22;10193;48.884;9.182;2023-07-13T04:53:27;20.40;51.80
20066;DHT22;10193;48.884;9.182;2023-07-13T04:55:54;20.40;51.80
20066;DHT22;10193;48.884;9.182;2023-07-13T04:58:21;20.40;51.70
20066;DHT22;10193;48.884;9.182;2023-07-13T05:00:48;20.40;51.70
20066;DHT22;10193;48.884;9.182;2023-07-13T05:03:15;20.40;51.80
20066;DHT22;10193;48.884;9.182;2023-07-13T05:05:53;20.40;51.90
20066;DHT22;10193;48.884;9.182;2023-07-13T05:08:20;20.50;52.10
20066;DHT22;10193;48.884;9.182;2023-07-13T05:10:47;20.60;53.00
20066;DHT22;10193;48.884;9.182;2023-07-13T05:13:13;20.60;52.80
20066;DHT22;10193;48.884;9.182;2023-07-13T05:15:40;20.80;54.20
20066;DHT22;10193;48.884;9.182;2023-07-13T05:18:07;21.00;54.40
20066;DHT22;10193;48.884;9.182;2023-07-13T05:20:33;21.40;54.80
20066;DHT22;10193;48.884;9.182;2023-07-13T05:23:01;21.70;54.70
20066;DHT22;10193;48.884;9.182;2023-07-13T05:25:28;22.10;54.20
20066;DHT22;10193;48.884;9.182;2023-07-13T05:27:55;22.30;53.80
20066;DHT22;10193;48.884;9.182;2023-07-13T05:30:21;22.50;53.20
20066;DHT22;10193;48.884;9.182;2023-07-13T05:32:48;22.70;52.90
20066;DHT22;10193;48.884;9.182;2023-07-13T05:35:15;22.80;52.60
20066;DHT22;10193;48.884;9.182;2023-07-13T05:37:41;22.90;52.30
20066;DHT22;10193;48.884;9.182;2023-07-13T05:40:10;22.90;52.20
20066;DHT22;10193;48.884;9.182;2023-07-13T05:42:37;22.90;52.10
20066;DHT22;10193;48.884;9.182;2023-07-13T05:45:04;22.90;52.20
20066;DHT22;10193;48.884;9.182;2023-07-13T05:47:30;22.90;52.30
20066;DHT22;10193;48.884;9.182;2023-07-13T05:49:57;22.90;52.60
20066;DHT22;10193;48.884;9.182;2023-07-13T05:52:24;23.00;52.80
20066;DHT22;10193;48.884;9.182;2023-07-13T05:54:50;23.00;53.20
20066;DHT22;10193;48.884;9.182;2023-07-13T05:57:19;23.10;52.40
20066;DHT22;10193;48.884;9.182;2023-07-13T05:59:45;23.10;52.30
20066;DHT22;10193;48.884;9.182;2023-07-13T06:02:13;23.20;52.50
20066;DHT22;10193;48.884;9.182;2023-07-13T06:04:40;23.20;52.30
20066;DHT22;10193;48.884;9.182;2023-07-13T06:07:07;23.30;52.90
20066;DHT22;10193;48.884;9.182;2023-07-13T06:09:33;23.40;52.80
20066;DHT22;10193;48.884;9.182;2023-07-13T06:12:00;23.60;53.50
20066;DHT22;10193;48.884;9.182;2023-07-13T06:14:28;23.80;53.50
20066;DHT22;10193;48.884;9.182;2023-07-13T06:16:55;24.10;53.20
20066;DHT22;10193;48.884;9.182;2023-07-13T06:19:21;24.40;53.50
20066;DHT22;10193;48.884;9.182;2023-07-13T06:21:48;24.70;53.30
20066;DHT22;10193;48.884;9.182;2023-07-13T06:24:15;25.10;52.80
20066;DHT22;10193;48.884;9.182;2023-07-13T06:26:41;25.30;51.50
20066;DHT22;10193;48.884;9.182;2023-07-13T06:29:08;25.50;50.90
20066;DHT22;10193;48.884;9.182;2023-07-13T06:31:36;25.60;50.80
20066;DHT22;10193;48.884;9.182;2023-07-13T06:34:03;25.80;50.40
20066;DHT22;10193;48.884;9.182;2023-07-13T06:36:29;25.90;50.10
20066;DHT22;10193;48.884;9.182;2023-07-13T06:38:56;26.00;49.50
20066;DHT22;10193;48.884;9.182;2023-07-13T06:41:23;26.10;49.60
20066;DHT22;10193;48.884;9.182;2023-07-13T06:43:51;26.30;50.10
20066;DHT22;10193;48.884;9.182;2023-07-13T06:46:18;26.60;50.70
20066;DHT22;10193;48.884;9.182;2023-07-13T06:48:46;26.90;50.70
20066;DHT22;10193;48.884;9.182;2023-07-13T06:51:12;27.20;50.20
20066;DHT22;10193;48.884;9.182;2023-07-13T06:53:39;27.50;49.40
20066;DHT22;10193;48.884;9.182;2023-07-13T06:56:08;27.80;48.40
20066;DHT22;10193;48.884;9.182;2023-07-13T06:58:36;28.00;48.00
20066;DHT22;10193;48.884;9.182;2023-07-13T07:01:04;28.20;47.40
20066;DHT22;10193;48.884;9.182;2023-07-13T07:03:31;28.30;47.10
20066;DHT22;10193;48.884;9.182;2023-07-13T07:06:06;28.40;46.40
20066;DHT22;10193;48.884;9.182;2023-07-13T07:08:38;28.50;45.20
20066;DHT22;10193;48.884;9.182;2023-07-13T07:11:05;28.40;44.60
20066;DHT22;10193;48.884;9.182;2023-07-13T07:13:31;28.30;44.00
20066;DHT22;10193;48.884;9.182;2023-07-13T07:16:00;28.10;44.30
20066;DHT22;10193;48.884;9.182;2023-07-13T07:18:27;27.90;44.40
20066;DHT22;10193;48.884;9.182;2023-07-13T07:20:53;27.80;44.50
20066;DHT22;10193;48.884;9.182;2023-07-13T07:23:24;27.70;44.30
20066;DHT22;10193;48.884;9.182;2023-07-13T07:25:51;27.60;44.00
20066;DHT22;10193;48.884;9.182;2023-07-13T07:28:18;27.50;44.00
20066;DHT22;10193;48.884;9.182;2023-07-13T07:30:45;27.40;44.30
20066;DHT22;10193;48.884;9.182;2023-07-13T07:33:12;27.20;43.90
20066;DHT22;10193;48.884;9.182;2023-07-13T07:35:38;27.10;43.60
20066;DHT22;10193;48.884;9.182;2023-07-13T07:38:05;27.00;43.90
20066;DHT22;10193;48.884;9.182;2023-07-13T07:40:38;26.80;44.70
20066;DHT22;10193;48.884;9.182;2023-07-13T07:43:05;26.70;43.90
20066;DHT22;10193;48.884;9.182;2023-07-13T07:45:32;26.70;44.60
20066;DHT22;10193;48.884;9.182;2023-07-13T07:47:59;26.60;44.30
20066;DHT22;10193;48.884;9.182;2023-07-13T07:50:26;26.50;44.10
20066;DHT22;10193;48.884;9.182;2023-07-13T07:52:53;26.50;44.10
20066;DHT22;10193;48.884;9.182;2023-07-13T07:55:21;26.40;43.60
20066;DHT22;10193;48.884;9.182;2023-07-13T07:57:49;26.30;43.50
20066;DHT22;10193;48.884;9.182;2023-07-13T08:00:17;26.20;43.40
20066;DHT22;10193;48.884;9.182;2023-07-13T08:02:44;26.10;43.10
20066;DHT22;10193;48.884;9.182;2023-07-13T08:05:11;26.00;42.80
20066;DHT22;10193;48.884;9.182;2023-07-13T08:07:39;25.90;42.80
20066;DHT22;10193;48.884;9.182;2023-07-13T08:10:07;25.80;42.80
20066;DHT22;10193;48.884;9.182;2023-07-13T08:12:34;25.70;42.70
20066;DHT22;10193;48.884;9.182;2023-07-13T08:15:02;25.60;42.60
20066;DHT22;10193;48.884;9.182;2023-07-13T08:17:29;25.60;42.70
20066;DHT22;10193;48.884;9.182;2023-07-13T08:19:56;25.50;42.70
20066;DHT22;10193;48.884;9.182;2023-07-13T08:22:22;25.40;42.50
20066;DHT22;10193;48.884;9.182;2023-07-13T08:24:49;25.40;42.30
20066;DHT22;10193;48.884;9.182;2023-07-13T08:27:21;25.40;42.30
20066;DHT22;10193;48.884;9.182;2023-07-13T08:29:48;25.30;42.50
20066;DHT22;10193;48.884;9.182;2023-07-13T08:32:17;25.30;42.40
20066;DHT22;10193;48.884;9.182;2023-07-13T08:34:44;25.30;42.20
20066;DHT22;10193;48.884;9.182;2023-07-13T08:37:11;25.30;42.20
20066;DHT22;10193;48.884;9.182;2023-07-13T08:39:38;25.20;42.10
20066;DHT22;10193;48.884;9.182;2023-07-13T08:42:26;25.20;42.10
20066;DHT22;10193;48.884;9.182;2023-07-13T08:44:57;25.20;42.20
20066;DHT22;10193;48.884;9.182;2023-07-13T08:47:34;25.20;42.30
20066;DHT22;10193;48.884;9.182;2023-07-13T08:50:03;25.30;42.30
20066;DHT22;10193;48.884;9.182;2023-07-13T08:52:33;25.30;42.30
20066;DHT22;10193;48.884;9.182;2023-07-13T08:55:08;25.30;42.30
20066;DHT22;10193;48.884;9.182;2023-07-13T08:57:38;25.30;42.20
20066;DHT22;10193;48.884;9.182;2023-07-13T09:00:09;25.40;42.40
20066;DHT22;10193;48.884;9.182;2023-07-13T09:02:44;25.40;42.20
20066;DHT22;10193;48.884;9.182;2023-07-13T09:05:14;25.40;42.00
20066;DHT22;10193;48.884;9.182;2023-07-13T09:07:58;25.40;42.30
20066;DHT22;10193;48.884;9.182;2023-07-13T09:10:29;25.40;42.10
20066;DHT22;10193;48.884;9.182;2023-07-13T09:13:07;25.50;42.40
20066;DHT22;10193;48.884;9.182;2023-07-13T09:15:40;25.50;42.60
20066;DHT22;10193;48.884;9.182;2023-07-13T09:18:14;25.60;42.80
20066;DHT22;10193;48.884;9.182;2023-07-13T09:20:49;25.60;42.10
20066;DHT22;10193;48.884;9.182;2023-07-13T09:23:26;25.70;42.70
20066;DHT22;10193;48.884;9.182;2023-07-13T09:26:00;25.80;42.10
20066;DHT22;10193;48.884;9.182;2023-07-13T09:28:30;25.80;41.80
20066;DHT22;10193;48.884;9.182;2023-07-13T09:31:04;25.80;42.10
20066;DHT22;10193;48.884;9.182;2023-07-13T09:33:33;25.90;41.70
20066;DHT22;10193;48.884;9.182;2023-07-13T09:36:00;25.90;41.30
20066;DHT22;10193;48.884;9.182;2023-07-13T09:38:29;25.90;41.20
20066;DHT22;10193;48.884;9.182;2023-07-13T09:41:14;26.00;41.10
20066;DHT22;10193;48.884;9.182;2023-07-13T09:44:06;26.00;41.00
20066;DHT22;10193;48.884;9.182;2023-07-13T09:46:34;26.00;40.90
20066;DHT22;10193;48.884;9.182;2023-07-13T09:49:02;26.00;40.90
20066;DHT22;10193;48.884;9.182;2023-07-13T09:51:29;26.10;40.70
20066;DHT22;10193;48.884;9.182;2023-07-13T09:53:56;26.10;40.50
20066;DHT22;10193;48.884;9.182;2023-07-13T09:56:26;26.10;40.70
20066;DHT22;10193;48.884;9.182;2023-07-13T09:58:53;26.10;40.90
20066;DHT22;10193;48.884;9.182;2023-07-13T10:01:31;26.20;41.00
20066;DHT22;10193;48.884;9.182;2023-07-13T10:03:58;26.30;40.80
20066;DHT22;10193;48.884;9.182;2023-07-13T10:06:27;26.30;40.50
20066;DHT22;10193;48.884;9.182;2023-07-13T10:08:56;26.40;40.40
20066;DHT22;10193;48.884;9.182;2023-07-13T10:11:25;26.40;40.50
20066;DHT22;10193;48.884;9.182;2023-07-13T10:13:56;26.50;40.40
20066;DHT22;10193;48.884;9.182;2023-07-13T10:16:25;26.50;40.10
20066;DHT22;10193;48.884;9.182;2023-07-13T10:18:56;26.60;39.70
20066;DHT22;10193;48.884;9.182;2023-07-13T10:21:28;26.60;39.80
20066;DHT22;10193;48.884;9.182;2023-07-13T10:24:02;26.60;40.00
20066;DHT22;10193;48.884;9.182;2023-07-13T10:26:32;26.60;39.70
20066;DHT22;10193;48.884;9.182;2023-07-13T10:29:04;26.70;39.90
20066;DHT22;10193;48.884;9.182;2023-07-13T10:31:32;26.70;39.90
20066;DHT22;10193;48.884;9.182;2023-07-13T10:34:01;26.80;40.20
20066;DHT22;10193;48.884;9.182;2023-07-13T10:36:32;26.90;40.40
20066;DHT22;10193;48.884;9.182;2023-07-13T10:39:02;26.90;40.80
20066;DHT22;10193;48.884;9.182;2023-07-13T10:41:33;27.00;40.20
20066;DHT22;10193;48.884;9.182;2023-07-13T10:44:02;27.10;39.80
20066;DHT22;10193;48.884;9.182;2023-07-13T10:46:30;27.20;39.60
20066;DHT22;10193;48.884;9.182;2023-07-13T10:48:58;27.20;39.30
20066;DHT22;10193;48.884;9.182;2023-07-13T10:51:27;27.30;39.20
20066;DHT22;10193;48.884;9.182;2023-07-13T10:54:12;27.30;39.30
20066;DHT22;10193;48.884;9.182;2023-07-13T10:56:42;27.40;39.10
20066;DHT22;10193;48.884;9.182;2023-07-13T10:59:12;27.40;39.10
20066;DHT22;10193;48.884;9.182;2023-07-13T11:01:46;27.50;39.30
20066;DHT22;10193;48.884;9.182;2023-07-13T11:04:15;27.50;38.60
20066;DHT22;10193;48.884;9.182;2023-07-13T11:06:43;27.50;38.70
20066;DHT22;10193;48.884;9.182;2023-07-13T11:09:32;27.60;38.50
20066;DHT22;10193;48.884;9.182;2023-07-13T11:12:00;27.60;38.20
20066;DHT22;10193;48.884;9.182;2023-07-13T11:14:30;27.60;37.80
20066;DHT22;10193;48.884;9.182;2023-07-13T11:17:29;27.60;37.40
20066;DHT22;10193;48.884;9.182;2023-07-13T11:23:09;27.50;37.50
20066;DHT22;10193;48.884;9.182;2023-07-13T11:25:36;27.50;37.50
20066;DHT22;10193;48.884;9.182;2023-07-13T11:28:21;27.50;37.80
20066;DHT22;10193;48.884;9.182;2023-07-13T11:30:49;27.50;37.60
20066;DHT22;10193;48.884;9.182;2023-07-13T11:33:55;27.60;37.80
20066;DHT22;10193;48.884;9.182;2023-07-13T11:36:28;27.60;37.60
20066;DHT22;10193;48.884;9.182;2023-07-13T11:39:01;27.70;38.10
20066;DHT22;10193;48.884;9.182;2023-07-13T11:41:30;27.80;38.00
20066;DHT22;10193;48.884;9.182;2023-07-13T11:44:06;27.90;37.70
20066;DHT22;10193;48.884;9.182;2023-07-13T11:46:33;27.90;37.10
20066;DHT22;10193;48.884;9.182;2023-07-13T11:49:04;28.00;36.90
20066;DHT22;10193;48.884;9.182;2023-07-13T11:51:33;28.00;36.60
20066;DHT22;10193;48.884;9.182;2023-07-13T11:54:03;28.00;36.70
20066;DHT22;10193;48.884;9.182;2023-07-13T11:56:30;28.00;36.50
20066;DHT22;10193;48.884;9.182;2023-07-13T11:58:59;28.00;36.60
20066;DHT22;10193;48.884;9.182;2023-07-13T12:01:31;28.00;36.60
20066;DHT22;10193;48.884;9.182;2023-07-13T12:04:00;28.00;36.40
20066;DHT22;10193;48.884;9.182;2023-07-13T12:06:30;28.00;36.30
20066;DHT22;10193;48.884;9.182;2023-07-13T12:08:57;28.00;35.80
20066;DHT22;10193;48.884;9.182;2023-07-13T12:11:24;28.00;36.10
20066;DHT22;10193;48.884;9.182;2023-07-13T12:13:51;28.00;36.00
20066;DHT22;10193;48.884;9.182;2023-07-13T12:16:31;28.00;35.70
20066;DHT22;10193;48.884;9.182;2023-07-13T12:19:00;27.90;35.20
20066;DHT22;10193;48.884;9.182;2023-07-13T12:21:31;27.90;35.60
20066;DHT22;10193;48.884;9.182;2023-07-13T12:23:58;27.90;35.30
20066;DHT22;10193;48.884;9.182;2023-07-13T12:26:28;27.90;35.50
20066;DHT22;10193;48.884;9.182;2023-07-13T12:28:55;27.90;35.40
20066;DHT22;10193;48.884;9.182;2023-07-13T12:31:26;27.90;35.40
20066;DHT22;10193;48.884;9.182;2023-07-13T12:34:02;27.90;35.70
20066;DHT22;10193;48.884;9.182;2023-07-13T12:36:33;27.90;35.50
20066;DHT22;10193;48.884;9.182;2023-07-13T12:39:03;28.00;35.50
20066;DHT22;10193;48.884;9.182;2023-07-13T12:41:31;28.20;35.60
20066;DHT22;10193;48.884;9.182;2023-07-13T12:43:59;28.20;35.20
20066;DHT22;10193;48.884;9.182;2023-07-13T12:46:26;28.30;35.00
20066;DHT22;10193;48.884;9.182;2023-07-13T12:48:57;28.30;34.50
20066;DHT22;10193;48.884;9.182;2023-07-13T12:51:26;28.30;34.00
20066;DHT22;10193;48.884;9.182;2023-07-13T12:53:57;28.20;33.40
20066;DHT22;10193;48.884;9.182;2023-07-13T12:56:26;28.20;33.40
20066;DHT22;10193;48.884;9.182;2023-07-13T12:58:57;28.20;33.50
20066;DHT22;10193;48.884;9.182;2023-07-13T13:01:27;28.20;33.50
20066;DHT22;10193;48.884;9.182;2023-07-13T13:03:55;28.10;33.50
20066;DHT22;10193;48.884;9.182;2023-07-13T13:06:24;28.20;33.50
20066;DHT22;10193;48.884;9.182;2023-07-13T13:08:54;28.20;33.40
20066;DHT22;10193;48.884;9.182;2023-07-13T13:11:23;28.20;33.20
20066;DHT22;10193;48.884;9.182;2023-07-13T13:13:50;28.20;33.40
20066;DHT22;10193;48.884;9.182;2023-07-13T13:16:20;28.20;33.20
20066;DHT22;10193;48.884;9.182;2023-07-13T13:18:47;28.20;33.10
20066;DHT22;10193;48.884;9.182;2023-07-13T13:21:15;28.10;33.10
20066;DHT22;10193;48.884;9.182;2023-07-13T13:23:42;28.20;33.30
20066;DHT22;10193;48.884;9.182;2023-07-13T13:26:11;28.20;33.10
20066;DHT22;10193;48.884;9.182;2023-07-13T13:28:38;28.20;33.20
20066;DHT22;10193;48.884;9.182;2023-07-13T13:31:05;28.20;33.30
20066;DHT22;10193;48.884;9.182;2023-07-13T13:33:32;28.20;33.40
20066;DHT22;10193;48.884;9.182;2023-07-13T13:35:59;28.30;33.20
20066;DHT22;10193;48.884;9.182;2023-07-13T13:38:27;28.30;33.10
20066;DHT22;10193;48.884;9.182;2023-07-13T13:40:54;28.30;33.00
20066;DHT22;10193;48.884;9.182;2023-07-13T13:43:24;28.30;32.90
20066;DHT22;10193;48.884;9.182;2023-07-13T13:45:53;28.30;32.80
20066;DHT22;10193;48.884;9.182;2023-07-13T13:48:25;28.30;32.80
20066;DHT22;10193;48.884;9.182;2023-07-13T13:50:55;28.30;32.70
20066;DHT22;10193;48.884;9.182;2023-07-13T13:53:22;28.30;32.50
20066;DHT22;10193;48.884;9.182;2023-07-13T13:55:50;28.30;32.50
20066;DHT22;10193;48.884;9.182;2023-07-13T13:58:22;28.30;32.30
20066;DHT22;10193;48.884;9.182;2023-07-13T14:00:49;28.30;32.20
20066;DHT22;10193;48.884;9.182;2023-07-13T14:03:17;28.30;32.60
20066;DHT22;10193;48.884;9.182;2023-07-13T14:05:45;28.30;32.30
20066;DHT22;10193;48.884;9.182;2023-07-13T14:08:13;28.30;32.60
20066;DHT22;10193;48.884;9.182;2023-07-13T14:10:41;28.40;32.50
20066;DHT22;10193;48.884;9.182;2023-07-13T14:13:16;28.40;32.20
20066;DHT22;10193;48.884;9.182;2023-07-13T14:15:45;28.40;32.00
20066;DHT22;10193;48.884;9.182;2023-07-13T14:18:13;28.40;32.10
20066;DHT22;10193;48.884;9.182;2023-07-13T14:20:43;28.40;32.30
20066;DHT22;10193;48.884;9.182;2023-07-13T14:23:10;28.40;32.20
20066;DHT22;10193;48.884;9.182;2023-07-13T14:25:36;28.50;32.20
20066;DHT22;10193;48.884;9.182;2023-07-13T14:28:17;28.50;32.10
20066;DHT22;10193;48.884;9.182;2023-07-13T14:30:46;28.50;31.60
20066;DHT22;10193;48.884;9.182;2023-07-13T14:33:13;28.50;31.40
20066;DHT22;10193;48.884;9.182;2023-07-13T14:35:39;28.50;31.50
20066;DHT22;10193;48.884;9.182;2023-07-13T14:38:10;28.50;31.50
20066;DHT22;10193;48.884;9.182;2023-07-13T14:40:38;28.50;31.50
20066;DHT22;10193;48.884;9.182;2023-07-13T14:43:09;28.40;31.60
20066;DHT22;10193;48.884;9.182;2023-07-13T14:45:39;28.40;31.60
20066;DHT22;10193;48.884;9.182;2023-07-13T14:48:14;28.40;31.60
20066;DHT22;10193;48.884;9.182;2023-07-13T14:50:42;28.30;31.70
20066;DHT22;10193;48.884;9.182;2023-07-13T14:53:10;28.40;31.90
20066;DHT22;10193;48.884;9.182;2023-07-13T14:55:37;28.40;31.90
20066;DHT22;10193;48.884;9.182;2023-07-13T14:58:04;28.40;32.00
20066;DHT22;10193;48.884;9.182;2023-07-13T15:00:30;28.40;31.90
20066;DHT22;10193;48.884;9.182;2023-07-13T15:02:58;28.30;32.00
20066;DHT22;10193;48.884;9.182;2023-07-13T15:05:30;28.30;31.90
20066;DHT22;10193;48.884;9.182;2023-07-13T15:07:58;28.30;32.00
20066;DHT22;10193;48.884;9.182;2023-07-13T15:10:27;28.30;31.90
20066;DHT22;10193;48.884;9.182;2023-07-13T15:12:59;28.30;32.00
20066;DHT22;10193;48.884;9.182;2023-07-13T15:15:27;28.30;32.10
20066;DHT22;10193;48.884;9.182;2023-07-13T15:17:54;28.40;32.20
20066;DHT22;10193;48.884;9.182;2023-07-13T15:20:25;28.40;32.00
20066;DHT22;10193;48.884;9.182;2023-07-13T15:22:54;28.40;32.20
20066;DHT22;10193;48.884;9.182;2023-07-13T15:25:23;28.40;32.20
20066;DHT22;10193;48.884;9.182;2023-07-13T15:27:50;28.40;32.20
20066;DHT22;10193;48.884;9.182;2023-07-13T15:30:17;28.50;32.20
20066;DHT22;10193;48.884;9.182;2023-07-13T15:32:44;28.50;31.80
20066;DHT22;10193;48.884;9.182;2023-07-13T15:35:15;28.60;31.70
20066;DHT22;10193;48.884;9.182;2023-07-13T15:37:42;28.50;31.80
20066;DHT22;10193;48.884;9.182;2023-07-13T15:40:11;28.50;31.90
20066;DHT22;10193;48.884;9.182;2023-07-13T15:42:39;28.50;31.70